createdAt,value
2019-04-05T00:01:12.849Z,98908.53
2019-04-05T00:05:19.667Z,98906.52
2019-04-05T00:09:26.363Z,98899.03
2019-04-05T00:13:33.130Z,98899.73
2019-04-05T00:17:39.798Z,98885.05
2019-04-05T00:21:46.465Z,98887.38
2019-04-05T00:25:53.220Z,98882.22
2019-04-05T00:29:59.896Z,98880.91
2019-04-05T00:34:06.562Z,98874.63
2019-04-05T00:38:13.348Z,98872.09
2019-04-05T00:42:21.145Z,98864.61
2019-04-05T00:46:28.897Z,98874.42
2019-04-05T00:50:37.406Z,98880.80
2019-04-05T00:54:44.327Z,98893.76
2019-04-05T00:58:51.070Z,98896.20
2019-04-05T01:02:57.724Z,98897.41
2019-04-05T01:07:07.262Z,98907.94
2019-04-05T01:11:14.168Z,98917.36
2019-04-05T01:15:20.921Z,98921.69
2019-04-05T01:19:32.698Z,98918.97
2019-04-05T01:23:39.864Z,98905.12
2019-04-05T01:27:48.474Z,98904.80
2019-04-05T01:31:55.459Z,98890.83
2019-04-05T01:36:02.171Z,98887.78
2019-04-05T01:40:11.773Z,98888.70
2019-04-05T01:44:19.983Z,98881.53
2019-04-05T01:48:27.761Z,98879.59
2019-04-05T01:52:35.933Z,98863.41
2019-04-05T01:56:42.949Z,98861.16
2019-04-05T02:00:49.709Z,98865.33
2019-04-05T02:04:56.651Z,98865.23
2019-04-05T02:09:08.650Z,98871.61
2019-04-05T02:13:15.491Z,98869.19
2019-04-05T02:17:22.217Z,98870.17
2019-04-05T02:21:29.327Z,98877.77
2019-04-05T02:25:36.029Z,98888.92
2019-04-05T02:29:42.665Z,98888.29
2019-04-05T02:33:49.357Z,98881.33
2019-04-05T02:37:56.240Z,98876.56
2019-04-05T02:42:03.160Z,98866.84
2019-04-05T02:46:23.621Z,98853.56
2019-04-05T02:50:23.076Z,98864.01
2019-04-05T02:54:30.329Z,98869.88
2019-04-05T02:58:40.651Z,98878.78
2019-04-05T03:02:48.141Z,98893.38
2019-04-05T03:06:55.106Z,98906.62
2019-04-05T03:11:16.283Z,98905.00
2019-04-05T03:15:23.314Z,98908.95
2019-04-05T03:19:33.854Z,98904.50
2019-04-05T03:23:44.222Z,98899.32
2019-04-05T03:27:51.006Z,98883.95
2019-04-05T03:31:58.016Z,98871.52
2019-04-05T03:36:05.081Z,98872.50
2019-04-05T03:40:12.998Z,98887.09
2019-04-05T03:44:22.954Z,98892.44
2019-04-05T03:48:28.543Z,98898.72
2019-04-05T03:52:35.534Z,98904.11
2019-04-05T03:56:42.302Z,98922.11
2019-04-05T04:00:49.105Z,98935.98
2019-04-05T04:04:57.335Z,98941.64
2019-04-05T04:09:05.233Z,98948.84
2019-04-05T04:13:11.916Z,98951.98
2019-04-05T04:17:21.574Z,98961.50
2019-04-05T04:21:39.656Z,98953.30
2019-04-05T04:25:47.022Z,98944.30
2019-04-05T04:29:55.435Z,98938.10
2019-04-05T04:34:02.673Z,98929.81
2019-04-05T04:38:10.247Z,98920.89
2019-04-05T04:42:18.080Z,98918.47
2019-04-05T04:46:25.001Z,98922.60
2019-04-05T04:50:33.041Z,98916.86
2019-04-05T04:54:40.109Z,98924.25
2019-04-05T04:58:46.812Z,98920.48
2019-04-05T05:02:54.051Z,98923.23
2019-04-05T05:07:00.932Z,98912.61
2019-04-05T05:11:14.502Z,98909.56
2019-04-05T05:15:17.217Z,98906.71
2019-04-05T05:19:24.431Z,98915.62
2019-04-05T05:23:31.199Z,98928.50
2019-04-05T05:27:38.989Z,98924.25
2019-04-05T05:31:45.799Z,98927.98
2019-04-05T05:35:52.540Z,98930.40
2019-04-05T05:40:01.081Z,98937.09
2019-04-05T05:44:07.769Z,98924.23
2019-04-05T05:48:15.075Z,98923.92
2019-04-05T05:52:22.559Z,98937.19
2019-04-05T05:56:29.204Z,98941.43
2019-04-05T06:00:35.857Z,98943.45
2019-04-05T06:04:42.661Z,98948.63
2019-04-05T06:08:49.414Z,98943.66
2019-04-05T06:12:58.617Z,98941.83
2019-04-05T06:17:04.493Z,98941.13
2019-04-05T06:21:11.639Z,98950.67
2019-04-05T06:25:18.342Z,98954.89
2019-04-05T06:29:25.136Z,98957.72
2019-04-05T06:33:32.203Z,98959.46
2019-04-05T06:37:39.025Z,98961.97
2019-04-05T06:41:45.783Z,98971.92
2019-04-05T06:45:52.611Z,98968.78
2019-04-05T06:49:59.286Z,98967.67
2019-04-05T06:54:06.077Z,98968.27
2019-04-05T06:58:19.583Z,98970.10
2019-04-05T07:02:21.237Z,98970.19
2019-04-05T07:06:28.006Z,98975.73
2019-04-05T07:10:35.631Z,98971.42
2019-04-05T07:14:42.315Z,98965.53
2019-04-05T07:18:49.001Z,98964.09
2019-04-05T07:22:56.717Z,98971.13
2019-04-05T07:27:03.469Z,98968.05
2019-04-05T07:31:10.271Z,98971.00
2019-04-05T07:35:16.947Z,98974.16
2019-04-05T07:39:23.700Z,98971.09
2019-04-05T07:43:30.364Z,98977.78
2019-04-05T07:47:38.790Z,98979.68
2019-04-05T07:51:49.446Z,98983.73
2019-04-05T07:55:56.127Z,98968.75
2019-04-05T08:00:08.513Z,98974.52
2019-04-05T08:04:16.318Z,98980.87
2019-04-05T08:09:05.693Z,98974.63
2019-04-05T08:13:15.303Z,98972.07
2019-04-05T08:17:22.046Z,98973.41
2019-04-05T08:21:28.737Z,98972.70
2019-04-05T08:25:35.436Z,98971.25
2019-04-05T08:29:42.099Z,98966.92
2019-04-05T08:33:48.839Z,98969.92
2019-04-05T08:37:55.688Z,98967.12
2019-04-05T08:42:03.187Z,98977.94
2019-04-05T08:46:09.933Z,98980.36
2019-04-05T08:50:16.687Z,98982.23
2019-04-05T08:54:32.558Z,98982.61
2019-04-05T08:58:33.466Z,98986.63
2019-04-05T09:02:41.034Z,98984.78
2019-04-05T09:06:47.879Z,98981.74
2019-04-05T09:10:54.787Z,98988.77
2019-04-05T09:15:01.606Z,98984.56
2019-04-05T09:19:08.367Z,98989.97
2019-04-05T09:23:15.105Z,98992.34
2019-04-05T09:27:21.789Z,98991.75
2019-04-05T09:31:29.704Z,98995.00
2019-04-05T09:35:36.440Z,98989.86
2019-04-05T09:39:43.222Z,98989.75
2019-04-05T09:43:49.886Z,98993.30
2019-04-05T09:47:56.555Z,98995.16
2019-04-05T09:52:03.538Z,99000.48
2019-04-05T09:56:10.242Z,98997.30
2019-04-05T10:00:25.306Z,98988.02
2019-04-05T10:04:32.027Z,98991.28
2019-04-05T10:08:38.824Z,98996.89
2019-04-05T10:12:45.586Z,98990.33
2019-04-05T10:16:52.263Z,98992.96
2019-04-05T10:20:58.975Z,98994.79
2019-04-05T10:25:06.128Z,98993.15
2019-04-05T10:29:12.905Z,98998.13
2019-04-05T10:33:19.665Z,98990.91
2019-04-05T10:37:26.418Z,98994.63
2019-04-05T10:41:34.197Z,98991.86
2019-04-05T10:45:41.012Z,98985.50
2019-04-05T10:49:47.856Z,98983.55
2019-04-05T10:53:54.601Z,98978.78
2019-04-05T10:58:01.282Z,98975.38
2019-04-05T11:02:08.037Z,98974.37
2019-04-05T11:06:14.971Z,98966.30
2019-04-05T11:10:22.131Z,98967.58
2019-04-05T11:14:28.909Z,98966.73
2019-04-05T11:18:35.786Z,98969.09
2019-04-05T11:22:42.500Z,98962.94
2019-04-05T11:26:49.270Z,98956.08
2019-04-05T11:30:56.008Z,98958.27
2019-04-05T11:35:02.899Z,98959.46
2019-04-05T11:39:10.869Z,98959.55
2019-04-05T11:43:19.442Z,98957.27
2019-04-05T11:47:26.711Z,98958.91
2019-04-05T11:51:33.391Z,98957.49
2019-04-05T11:55:40.151Z,98947.28
2019-04-05T11:59:48.517Z,98944.53
2019-04-05T12:03:55.317Z,98942.16
2019-04-05T12:08:02.234Z,98941.92
2019-04-05T12:12:08.970Z,98947.95
2019-04-05T12:16:15.879Z,98943.47
2019-04-05T12:21:16.713Z,98943.03
2019-04-05T12:25:20.351Z,98933.77
2019-04-05T12:29:28.671Z,98934.70
2019-04-05T12:33:35.456Z,98923.79
2019-04-05T12:37:50.049Z,98924.68
2019-04-05T12:41:50.733Z,98926.87
2019-04-05T12:45:57.479Z,98936.55
2019-04-05T12:50:07.632Z,98933.51
2019-04-05T12:54:14.319Z,98921.28
2019-04-05T12:58:21.259Z,98918.59
2019-04-05T13:02:33.891Z,98915.28
2019-04-05T13:06:37.691Z,98909.22
2019-04-05T13:10:44.989Z,98909.43
2019-04-05T13:14:53.445Z,98909.27
2019-04-05T13:19:02.104Z,98901.21
2019-04-05T13:23:08.961Z,98902.96
2019-04-05T13:27:16.021Z,98907.59
2019-04-05T13:31:23.769Z,98908.84
2019-04-05T13:35:30.636Z,98910.81
2019-04-05T13:39:37.343Z,98912.14
2019-04-05T13:43:44.121Z,98899.73
2019-04-05T13:47:50.933Z,98902.29
2019-04-05T13:51:57.663Z,98900.16
2019-04-05T13:56:04.538Z,98896.87
2019-04-05T14:00:12.914Z,98890.77
2019-04-05T14:04:21.088Z,98891.42
2019-04-05T14:08:29.366Z,98882.59
2019-04-05T14:12:37.666Z,98882.40
2019-04-05T14:16:44.949Z,98884.30
2019-04-05T14:20:52.223Z,98874.75
2019-04-05T14:24:59.753Z,98868.80
2019-04-05T14:29:07.398Z,98870.18
2019-04-05T14:33:14.733Z,98872.57
2019-04-05T14:37:25.024Z,98875.27
2019-04-05T14:41:30.968Z,98867.96
2019-04-05T14:45:37.772Z,98864.66
2019-04-05T14:49:46.446Z,98866.96
2019-04-05T14:53:53.188Z,98867.91
2019-04-05T14:58:06.264Z,98865.06
2019-04-05T15:02:13.692Z,98863.94
2019-04-05T15:06:21.074Z,98868.14
2019-04-05T15:10:28.308Z,98860.20
2019-04-05T15:14:35.545Z,98865.26
2019-04-05T15:18:47.375Z,98863.09
2019-04-05T15:22:58.161Z,98863.41
2019-04-05T15:27:07.382Z,98866.20
2019-04-05T15:31:14.742Z,98858.98
2019-04-05T15:35:21.620Z,98864.07
2019-04-05T15:39:28.573Z,98861.38
2019-04-05T15:43:38.012Z,98867.91
2019-04-05T15:47:44.773Z,98864.07
2019-04-05T15:51:54.314Z,98861.53
2019-04-05T15:56:03.893Z,98856.23
2019-04-05T16:00:14.332Z,98852.84
2019-04-05T16:04:21.289Z,98848.73
2019-04-05T16:08:28.776Z,98853.88
2019-04-05T16:12:35.639Z,98856.38
2019-04-05T16:16:42.493Z,98861.99
2019-04-05T16:20:49.310Z,98865.36
2019-04-05T16:24:56.057Z,98865.06
2019-04-05T16:29:04.715Z,98868.08
2019-04-05T16:33:11.614Z,98866.24
2019-04-05T16:37:19.732Z,98867.94
2019-04-05T16:41:26.502Z,98871.67
2019-04-05T16:45:33.287Z,98869.46
2019-04-05T16:49:40.075Z,98860.00
2019-04-05T16:54:03.349Z,98864.40
2019-04-05T16:58:10.188Z,98867.27
2019-04-05T17:02:17.012Z,98866.31
2019-04-05T17:06:24.927Z,98875.05
2019-04-05T17:10:31.930Z,98874.11
2019-04-05T17:14:38.949Z,98878.06
2019-04-05T17:18:45.912Z,98881.22
2019-04-05T17:22:58.485Z,98884.90
2019-04-05T17:27:01.376Z,98891.14
2019-04-05T17:31:08.094Z,98887.67
2019-04-05T17:35:14.935Z,98880.94
2019-04-05T17:39:24.775Z,98890.45
2019-04-05T17:43:31.579Z,98888.67
2019-04-05T17:47:38.309Z,98885.81
2019-04-05T17:51:45.807Z,98885.97
2019-04-05T17:55:52.642Z,98887.48
2019-04-05T17:59:59.864Z,98887.78
2019-04-05T18:04:09.529Z,98894.25
2019-04-05T18:08:17.335Z,98891.64
2019-04-05T18:12:25.628Z,98899.05
2019-04-05T18:16:37.460Z,98903.78
2019-04-05T18:20:44.689Z,98911.20
2019-04-05T18:24:53.087Z,98904.34
2019-04-05T18:28:59.980Z,98910.00
2019-04-05T18:33:06.713Z,98900.83
2019-04-05T18:37:13.792Z,98906.11
2019-04-05T18:41:21.705Z,98915.64
2019-04-05T18:45:28.483Z,98913.74
2019-04-05T18:49:35.292Z,98915.22
2019-04-05T18:53:42.100Z,98921.83
2019-04-05T18:57:48.788Z,98935.48
2019-04-05T19:01:55.519Z,98940.31
2019-04-05T19:06:02.280Z,98945.59
2019-04-05T19:10:09.375Z,98946.41
2019-04-05T19:14:16.028Z,98948.94
2019-04-05T19:18:22.771Z,98949.05
2019-04-05T19:22:31.801Z,98940.31
2019-04-05T19:26:38.909Z,98945.27
2019-04-05T19:51:32.086Z,98913.70
2019-04-05T19:55:39.192Z,98912.03
2019-04-05T19:59:45.953Z,98911.80
2019-04-05T20:03:53.070Z,98921.98
2019-04-05T20:08:00.032Z,98920.05
2019-04-05T20:12:07.065Z,98924.05
2019-04-05T20:16:15.650Z,98920.80
2019-04-05T20:20:22.671Z,98925.59
2019-04-05T20:24:29.432Z,98927.56
2019-04-05T20:28:36.865Z,98925.08
2019-04-05T20:32:43.837Z,98926.24
2019-04-05T20:36:51.074Z,98933.91
2019-04-05T20:40:58.497Z,98927.39
2019-04-05T20:45:05.866Z,98938.25
2019-04-05T20:49:12.917Z,98938.64
2019-04-05T20:53:19.848Z,98938.55
2019-04-05T20:57:26.944Z,98930.27
2019-04-05T21:01:33.740Z,98926.78
2019-04-05T21:05:41.034Z,98928.94
2019-04-05T21:09:48.095Z,98932.58
2019-04-05T21:13:55.335Z,98935.67
2019-04-05T21:18:04.894Z,98938.83
2019-04-05T21:22:11.628Z,98935.55
2019-04-05T21:26:21.588Z,98943.60
2019-04-05T21:30:28.324Z,98945.27
2019-04-05T21:34:35.067Z,98950.81
2019-04-05T21:38:41.810Z,98946.41
2019-04-05T21:42:50.472Z,98949.14
2019-04-05T21:46:57.445Z,98949.27
2019-04-05T21:51:04.261Z,98957.33
2019-04-05T21:55:11.590Z,98954.88
2019-04-05T21:59:18.386Z,98953.69
2019-04-05T22:03:25.238Z,98953.98
2019-04-05T22:07:33.636Z,98960.28
2019-04-05T22:11:41.755Z,98953.69
2019-04-05T22:15:49.326Z,98958.52
2019-04-05T22:19:56.007Z,98959.46
2019-04-05T22:24:02.733Z,98961.45
2019-04-05T22:28:10.545Z,98960.00
2019-04-05T22:32:17.747Z,98960.94
2019-04-05T22:36:24.521Z,98947.02
2019-04-05T22:40:31.270Z,98948.41
2019-04-05T22:44:41.331Z,98950.50
2019-04-05T22:48:46.472Z,98952.31
2019-04-05T22:52:53.165Z,98944.03
2019-04-05T22:56:59.865Z,98949.98
2019-04-05T23:01:06.689Z,98932.01
2019-04-05T23:05:13.481Z,98938.74
2019-04-05T23:09:21.308Z,98930.52
2019-04-05T23:13:27.935Z,98922.15
2019-04-05T23:17:34.764Z,98927.88
2019-04-05T23:21:41.643Z,98923.05
2019-04-05T23:25:48.349Z,98918.92
2019-04-05T23:29:55.139Z,98928.69
2019-04-05T23:34:02.121Z,98922.17
2019-04-05T23:38:08.829Z,98926.07
2019-04-05T23:42:15.591Z,98926.59
2019-04-05T23:46:22.260Z,98931.42
2019-04-05T23:50:28.946Z,98924.69
2019-04-05T23:54:35.630Z,98927.33
2019-04-05T23:58:42.310Z,98929.91
